createdAt,value
2022-10-19T00:01:07.362Z,1.60
2022-10-19T00:03:56.873Z,1.85
2022-10-19T00:06:45.946Z,1.88
2022-10-19T00:09:33.471Z,2.20
2022-10-19T00:12:21.421Z,1.88
2022-10-19T00:15:11.019Z,1.80
2022-10-19T00:17:58.562Z,1.60
2022-10-19T00:20:46.175Z,1.85
2022-10-19T00:23:33.419Z,1.85
2022-10-19T00:26:20.991Z,2.00
2022-10-19T00:29:08.375Z,1.90
2022-10-19T00:31:57.443Z,1.90
2022-10-19T00:34:44.722Z,1.85
2022-10-19T00:37:32.382Z,1.60
2022-10-19T00:40:20.016Z,1.92
2022-10-19T00:43:13.798Z,1.60
2022-10-19T00:46:00.886Z,2.10
2022-10-19T00:48:50.692Z,2.58
2022-10-19T00:51:40.686Z,2.70
2022-10-19T00:54:28.124Z,2.55
2022-10-19T00:57:16.358Z,2.60
2022-10-19T01:00:08.262Z,2.33
2022-10-19T01:02:45.987Z,2.60
2022-10-19T01:05:35.939Z,2.50
2022-10-19T01:08:34.420Z,2.85
2022-10-19T01:11:33.129Z,2.57
2022-10-19T01:14:32.045Z,2.80
2022-10-19T01:17:29.609Z,3.17
2022-10-19T01:21:04.889Z,2.72
2022-10-19T01:24:30.115Z,2.67
2022-10-19T01:27:44.259Z,2.60
2022-10-19T01:30:47.062Z,2.45
2022-10-19T01:33:46.627Z,2.63
2022-10-19T01:36:43.224Z,2.50
2022-10-19T01:39:39.788Z,2.60
2022-10-19T01:42:32.468Z,2.30
2022-10-19T01:45:23.262Z,1.70
2022-10-19T01:48:16.717Z,2.47
2022-10-19T01:51:07.868Z,2.60
2022-10-19T01:53:59.316Z,2.50
2022-10-19T01:56:49.928Z,2.40
2022-10-19T01:59:38.429Z,2.35
2022-10-19T02:02:27.525Z,2.60
2022-10-19T02:05:19.168Z,2.10
2022-10-19T02:08:12.057Z,2.40
2022-10-19T02:11:01.110Z,2.10
2022-10-19T02:13:52.495Z,2.38
2022-10-19T02:16:46.075Z,2.33
2022-10-19T02:19:33.827Z,2.00
2022-10-19T02:22:23.262Z,2.17
2022-10-19T02:25:12.598Z,2.17
2022-10-19T02:28:02.193Z,2.60
2022-10-19T02:30:50.201Z,2.30
2022-10-19T02:33:38.299Z,2.38
2022-10-19T02:36:25.696Z,2.65
2022-10-19T02:39:14.176Z,2.50
2022-10-19T02:42:07.252Z,2.50
2022-10-19T02:45:00.571Z,2.80
2022-10-19T02:47:53.400Z,2.30
2022-10-19T02:50:44.952Z,2.83
2022-10-19T02:53:31.927Z,2.97
2022-10-19T02:56:21.024Z,3.05
2022-10-19T02:59:08.944Z,2.88
2022-10-19T03:01:56.169Z,3.50
2022-10-19T03:04:44.844Z,3.17
2022-10-19T03:07:33.093Z,4.97
2022-10-19T03:10:21.627Z,5.32
2022-10-19T03:13:10.350Z,4.85
2022-10-19T03:15:58.258Z,4.60
2022-10-19T03:18:45.507Z,4.60
2022-10-19T03:21:32.733Z,3.83
2022-10-19T03:24:20.243Z,3.65
2022-10-19T03:27:07.407Z,3.17
2022-10-19T03:29:55.906Z,3.28
2022-10-19T03:32:43.259Z,3.42
2022-10-19T03:35:30.978Z,3.43
2022-10-19T03:38:18.125Z,3.47
2022-10-19T03:41:07.070Z,4.03
2022-10-19T03:43:54.405Z,4.93
2022-10-19T03:46:42.964Z,4.82
2022-10-19T03:49:30.845Z,5.77
2022-10-19T03:52:18.510Z,6.72
2022-10-19T03:55:06.983Z,6.53
2022-10-19T03:57:54.314Z,5.72
2022-10-19T04:00:42.034Z,4.78
2022-10-19T04:03:30.776Z,3.40
2022-10-19T04:06:22.094Z,3.60
2022-10-19T04:09:12.643Z,3.42
2022-10-19T04:11:59.861Z,3.40
2022-10-19T04:14:56.872Z,4.30
2022-10-19T04:17:48.528Z,3.40
2022-10-19T04:20:38.969Z,3.67
2022-10-19T04:23:28.750Z,3.25
2022-10-19T04:26:16.107Z,3.67
2022-10-19T04:29:03.768Z,3.40
2022-10-19T04:31:51.987Z,3.50
2022-10-19T04:34:40.178Z,4.40
2022-10-19T04:37:29.439Z,4.38
2022-10-19T04:40:17.218Z,3.90
2022-10-19T04:43:05.362Z,3.58
2022-10-19T04:45:52.555Z,3.90
2022-10-19T04:48:41.256Z,3.63
2022-10-19T04:51:29.158Z,3.97
2022-10-19T04:54:18.128Z,3.55
2022-10-19T04:57:05.553Z,3.65
2022-10-19T04:59:52.871Z,4.10
2022-10-19T05:02:44.442Z,4.35
2022-10-19T05:05:33.212Z,3.88
2022-10-19T05:08:20.843Z,4.38
2022-10-19T05:11:11.730Z,4.28
2022-10-19T05:13:59.776Z,3.27
2022-10-19T05:16:47.195Z,3.88
2022-10-19T05:19:34.660Z,4.18
2022-10-19T05:22:21.981Z,3.85
2022-10-19T05:25:09.695Z,3.90
2022-10-19T05:27:58.789Z,3.93
2022-10-19T05:30:48.974Z,3.85
2022-10-19T05:33:36.991Z,3.90
2022-10-19T05:36:26.520Z,3.30
2022-10-19T05:39:15.600Z,4.07
2022-10-19T05:42:02.734Z,4.73
2022-10-19T05:44:51.740Z,4.28
2022-10-19T05:47:38.914Z,7.75
2022-10-19T05:50:26.025Z,6.40
2022-10-19T05:53:13.471Z,7.97
2022-10-19T05:56:01.212Z,8.27
2022-10-19T05:58:49.299Z,8.27
2022-10-19T06:01:38.825Z,7.82
2022-10-19T06:04:26.524Z,8.00
2022-10-19T06:07:14.124Z,8.98
2022-10-19T06:10:01.793Z,8.83
2022-10-19T06:12:49.299Z,9.23
2022-10-19T06:15:40.112Z,8.02
2022-10-19T06:18:28.718Z,7.97
2022-10-19T06:21:17.532Z,7.78
2022-10-19T06:24:06.622Z,8.43
2022-10-19T06:26:54.337Z,8.90
2022-10-19T06:29:41.414Z,8.98
2022-10-19T06:32:29.548Z,8.38
2022-10-19T06:35:18.538Z,9.30
2022-10-19T06:38:06.012Z,11.23
2022-10-19T06:40:53.548Z,11.20
2022-10-19T06:43:43.164Z,10.57
2022-10-19T06:46:30.611Z,7.40
2022-10-19T06:49:18.482Z,6.22
2022-10-19T06:52:07.690Z,6.47
2022-10-19T06:54:54.917Z,6.05
2022-10-19T06:57:43.019Z,5.70
2022-10-19T07:00:31.177Z,5.78
2022-10-19T07:03:18.454Z,5.55
2022-10-19T07:06:08.862Z,5.97
2022-10-19T07:08:58.328Z,6.10
2022-10-19T07:11:46.314Z,5.78
2022-10-19T07:14:38.702Z,6.60
2022-10-19T07:17:26.432Z,6.25
2022-10-19T07:20:13.913Z,6.10
2022-10-19T07:23:01.354Z,6.13
2022-10-19T07:25:50.442Z,5.95
2022-10-19T07:28:37.848Z,5.57
2022-10-19T07:31:26.881Z,5.47
2022-10-19T07:34:16.388Z,6.03
2022-10-19T07:37:04.159Z,6.25
2022-10-19T07:39:51.445Z,6.55
2022-10-19T07:42:40.174Z,5.97
2022-10-19T07:45:27.627Z,6.43
2022-10-19T07:48:15.348Z,6.13
2022-10-19T07:51:05.396Z,5.85
2022-10-19T07:53:53.006Z,5.88
2022-10-19T07:56:41.170Z,6.13
2022-10-19T07:59:30.140Z,6.00
2022-10-19T08:02:18.560Z,5.93
2022-10-19T08:05:10.457Z,5.95
2022-10-19T08:07:59.193Z,6.47
2022-10-19T08:10:46.654Z,7.00
2022-10-19T08:13:34.269Z,6.47
2022-10-19T08:16:26.618Z,6.70
2022-10-19T08:19:16.313Z,7.45
2022-10-19T08:22:03.709Z,6.25
2022-10-19T08:24:50.993Z,7.20
2022-10-19T08:27:38.151Z,7.72
2022-10-19T08:30:25.759Z,6.83
2022-10-19T08:33:15.439Z,6.95
2022-10-19T08:36:06.077Z,7.10
2022-10-19T08:38:53.676Z,8.05
2022-10-19T08:41:57.035Z,7.85
2022-10-19T08:45:01.869Z,7.80
2022-10-19T08:48:02.087Z,8.65
2022-10-19T08:50:51.685Z,8.27
2022-10-19T08:53:45.372Z,7.53
2022-10-19T08:56:53.012Z,7.22
2022-10-19T08:59:46.401Z,5.73
2022-10-19T09:02:47.159Z,6.53
2022-10-19T09:05:41.830Z,6.25
2022-10-19T09:08:31.726Z,6.25
2022-10-19T09:11:26.080Z,5.82
2022-10-19T09:14:20.355Z,5.17
2022-10-19T09:17:14.819Z,5.88
2022-10-19T09:20:14.508Z,4.90
2022-10-19T09:23:09.807Z,4.70
2022-10-19T09:26:01.184Z,4.53
2022-10-19T09:28:55.662Z,5.40
2022-10-19T09:31:43.989Z,3.65
2022-10-19T09:34:35.552Z,4.05
2022-10-19T09:37:26.504Z,3.15
2022-10-19T09:40:18.202Z,3.65
2022-10-19T09:43:20.189Z,3.53
2022-10-19T09:46:20.067Z,2.38
2022-10-19T09:49:08.388Z,2.75
2022-10-19T09:51:56.730Z,2.40
2022-10-19T09:54:44.382Z,2.35
2022-10-19T09:57:32.754Z,1.70
2022-10-19T10:00:24.401Z,1.80
2022-10-19T10:03:25.197Z,0.77
2022-10-19T10:06:16.735Z,0.70
2022-10-19T10:09:05.517Z,0.85
2022-10-19T10:14:47.212Z,0.80
2022-10-19T10:17:37.296Z,0.50
2022-10-19T10:20:30.569Z,0.70
2022-10-19T10:23:25.265Z,0.60
2022-10-19T10:26:19.951Z,0.50
2022-10-19T10:29:20.423Z,0.52
2022-10-19T10:32:09.994Z,1.15
2022-10-19T10:35:02.867Z,0.57
2022-10-19T10:37:50.904Z,0.88
2022-10-19T10:40:40.579Z,0.83
2022-10-19T10:43:32.246Z,0.65
2022-10-19T10:46:23.284Z,0.70
2022-10-19T10:49:21.320Z,0.43
2022-10-19T10:52:13.550Z,0.63
2022-10-19T10:55:04.646Z,0.57
2022-10-19T10:57:55.939Z,0.52
2022-10-19T11:00:43.828Z,0.60
2022-10-19T11:03:33.255Z,0.57
2022-10-19T11:09:25.952Z,0.63
2022-10-19T11:12:17.519Z,0.52
2022-10-19T11:15:13.317Z,0.70
2022-10-19T11:18:17.077Z,0.68
2022-10-19T11:21:11.058Z,0.73
2022-10-19T11:24:07.305Z,0.53
2022-10-19T11:27:11.861Z,0.60
2022-10-19T11:30:15.400Z,0.65
2022-10-19T11:33:08.170Z,0.57
2022-10-19T11:35:59.664Z,0.63
2022-10-19T11:38:59.999Z,1.10
2022-10-19T11:41:58.757Z,0.70
2022-10-19T11:44:57.187Z,1.15
2022-10-19T11:47:59.955Z,1.10
2022-10-19T11:51:04.128Z,1.08
2022-10-19T11:54:17.927Z,1.20
2022-10-19T11:57:11.975Z,0.95
2022-10-19T12:00:14.496Z,1.10
2022-10-19T12:03:27.253Z,1.17
2022-10-19T12:06:21.332Z,1.42
2022-10-19T12:09:34.005Z,1.37
2022-10-19T12:12:30.609Z,1.50
2022-10-19T12:15:25.049Z,1.50
2022-10-19T12:18:17.553Z,1.30
2022-10-19T12:21:10.957Z,1.63
2022-10-19T12:24:01.982Z,1.30
2022-10-19T12:26:52.248Z,1.10
2022-10-19T12:29:44.795Z,1.20
2022-10-19T12:32:41.209Z,1.00
2022-10-19T12:35:53.990Z,1.10
2022-10-19T12:38:59.719Z,0.90
2022-10-19T12:41:57.198Z,0.90
2022-10-19T12:45:07.801Z,0.70
2022-10-19T12:48:22.566Z,0.90
2022-10-19T12:51:13.285Z,1.00
2022-10-19T12:54:10.861Z,0.63
2022-10-19T12:57:00.380Z,1.35
2022-10-19T12:59:47.563Z,1.13
2022-10-19T13:02:37.985Z,1.17
2022-10-19T13:05:29.193Z,1.13
2022-10-19T13:08:28.565Z,0.80
2022-10-19T13:11:17.101Z,0.88
2022-10-19T13:14:07.125Z,0.82
2022-10-19T13:17:00.326Z,1.30
2022-10-19T13:19:47.700Z,2.05
2022-10-19T13:22:37.281Z,1.90
2022-10-19T13:25:28.244Z,1.60
2022-10-19T13:28:38.264Z,1.10
2022-10-19T13:31:28.008Z,1.20
2022-10-19T13:34:16.463Z,1.02
2022-10-19T13:37:05.248Z,1.03
2022-10-19T13:39:55.445Z,1.15
2022-10-19T13:42:42.851Z,0.90
2022-10-19T13:45:30.459Z,1.33
2022-10-19T13:48:25.723Z,1.88
2022-10-19T13:51:24.451Z,0.93
2022-10-19T13:54:28.783Z,1.17
2022-10-19T13:57:35.554Z,1.15
2022-10-19T14:00:24.480Z,1.25
2022-10-19T14:03:32.307Z,1.30
2022-10-19T14:06:28.919Z,1.03
2022-10-19T14:09:30.313Z,1.65
2022-10-19T14:12:23.722Z,1.20
2022-10-19T14:15:27.436Z,1.20
2022-10-19T14:18:25.400Z,1.17
2022-10-19T14:21:12.799Z,0.80
2022-10-19T14:24:00.420Z,0.80
2022-10-19T14:26:47.951Z,0.98
2022-10-19T14:29:45.500Z,1.10
2022-10-19T14:32:35.829Z,0.80
2022-10-19T14:35:28.566Z,1.00
2022-10-19T14:38:21.005Z,1.00
2022-10-19T14:41:20.024Z,0.95
2022-10-19T14:44:31.463Z,1.25
2022-10-19T14:47:22.393Z,0.80
2022-10-19T14:50:13.979Z,1.07
2022-10-19T14:53:08.075Z,0.90
2022-10-19T14:55:59.356Z,0.70
2022-10-19T14:58:50.895Z,0.90
2022-10-19T15:01:38.012Z,1.00
2022-10-19T15:04:29.198Z,0.80
2022-10-19T15:07:22.175Z,0.80
2022-10-19T15:10:18.901Z,0.80
2022-10-19T15:13:08.683Z,0.90
2022-10-19T15:15:57.196Z,0.88
2022-10-19T15:18:49.712Z,0.90
2022-10-19T15:21:37.320Z,1.02
2022-10-19T15:24:28.728Z,0.60
2022-10-19T15:27:22.134Z,0.90
2022-10-19T15:30:26.089Z,0.80
2022-10-19T15:33:16.472Z,1.00
2022-10-19T15:36:09.867Z,0.80
2022-10-19T15:39:17.632Z,0.82
2022-10-19T15:42:40.064Z,1.27
2022-10-19T15:45:33.467Z,1.10
2022-10-19T15:48:30.029Z,1.10
2022-10-19T15:51:43.168Z,1.00
2022-10-19T15:54:30.498Z,0.75
2022-10-19T15:57:30.705Z,0.98
2022-10-19T16:00:20.313Z,0.90
2022-10-19T16:03:07.642Z,1.37
2022-10-19T16:05:54.879Z,1.20
2022-10-19T16:08:42.653Z,1.00
2022-10-19T16:11:31.228Z,1.30
2022-10-19T16:14:18.659Z,1.40
2022-10-19T16:17:08.060Z,1.20
2022-10-19T16:19:55.938Z,1.25
2022-10-19T16:22:43.969Z,1.10
2022-10-19T16:25:31.281Z,1.23
2022-10-19T16:28:18.752Z,1.38
2022-10-19T16:31:06.576Z,1.50
2022-10-19T16:33:55.501Z,1.30
2022-10-19T16:36:42.947Z,1.65
2022-10-19T16:39:30.417Z,1.10
2022-10-19T16:42:17.883Z,1.33
2022-10-19T16:45:06.173Z,1.50
2022-10-19T16:47:54.026Z,1.50
2022-10-19T16:53:35.891Z,1.73
2022-10-19T16:56:23.189Z,1.55
2022-10-19T16:59:13.833Z,1.97
2022-10-19T17:02:01.194Z,1.80
2022-10-19T17:04:48.751Z,2.10
2022-10-19T17:07:37.059Z,2.10
2022-10-19T17:10:24.474Z,1.98
2022-10-19T17:13:12.027Z,2.07
2022-10-19T17:16:04.094Z,2.25
2022-10-19T17:18:53.596Z,2.67
2022-10-19T17:21:42.428Z,2.42
2022-10-19T17:24:32.036Z,2.88
2022-10-19T17:27:20.081Z,3.47
2022-10-19T17:30:08.837Z,3.40
2022-10-19T17:32:56.888Z,3.72
2022-10-19T17:35:44.423Z,3.95
2022-10-19T17:38:32.909Z,3.95
2022-10-19T17:41:22.573Z,3.80
2022-10-19T17:44:10.044Z,3.35
2022-10-19T17:46:57.288Z,3.00
2022-10-19T17:49:44.948Z,2.83
2022-10-19T17:52:32.790Z,3.22
2022-10-19T17:58:14.601Z,3.63
2022-10-19T18:01:03.590Z,3.30
2022-10-19T18:03:51.884Z,3.30
2022-10-19T18:06:40.711Z,4.07
2022-10-19T18:09:35.403Z,3.20
2022-10-19T18:12:26.832Z,3.50
2022-10-19T18:15:17.278Z,3.72
2022-10-19T18:18:05.321Z,4.20
2022-10-19T18:20:53.042Z,3.38
2022-10-19T18:23:41.228Z,3.33
2022-10-19T18:26:30.971Z,3.25
2022-10-19T18:29:21.890Z,3.40
2022-10-19T18:32:12.312Z,3.22
2022-10-19T18:35:00.255Z,3.22
2022-10-19T18:37:47.857Z,2.60
2022-10-19T18:40:36.657Z,2.60
2022-10-19T18:43:24.393Z,2.65
2022-10-19T18:46:12.210Z,3.15
2022-10-19T18:49:03.592Z,2.50
2022-10-19T18:51:55.076Z,2.27
2022-10-19T18:54:43.713Z,2.42
2022-10-19T18:57:31.978Z,2.20
2022-10-19T19:00:19.989Z,2.03
2022-10-19T19:03:08.020Z,2.03
2022-10-19T19:06:00.551Z,2.17
2022-10-19T19:08:48.718Z,1.80
2022-10-19T19:11:38.499Z,2.00
2022-10-19T19:14:27.211Z,1.77
2022-10-19T19:17:15.208Z,2.13
2022-10-19T19:20:03.451Z,2.37
2022-10-19T19:22:52.708Z,1.77
2022-10-19T19:25:41.558Z,1.90
2022-10-19T19:28:29.403Z,1.55
2022-10-19T19:31:17.309Z,1.95
2022-10-19T19:34:09.311Z,1.53
2022-10-19T19:36:56.971Z,1.60
2022-10-19T19:39:46.052Z,1.83
2022-10-19T19:42:33.502Z,1.58
2022-10-19T19:45:21.300Z,1.60
2022-10-19T19:48:11.454Z,1.80
2022-10-19T19:50:59.023Z,1.40
2022-10-19T19:53:51.790Z,1.40
2022-10-19T19:56:52.208Z,1.42
2022-10-19T19:59:44.168Z,2.00
2022-10-19T20:02:40.214Z,1.80
2022-10-19T20:05:30.541Z,1.60
2022-10-19T20:08:18.566Z,1.23
2022-10-19T20:11:09.001Z,1.38
2022-10-19T20:13:58.638Z,1.48
2022-10-19T20:16:45.992Z,1.27
2022-10-19T20:19:33.156Z,1.30
2022-10-19T20:22:21.624Z,1.33
2022-10-19T20:25:10.057Z,1.58
2022-10-19T20:27:57.705Z,1.40
2022-10-19T20:30:46.558Z,1.50
2022-10-19T20:33:36.747Z,1.80
2022-10-19T20:36:25.984Z,2.10
2022-10-19T20:39:13.396Z,1.98
2022-10-19T20:42:00.704Z,2.28
2022-10-19T20:44:48.462Z,1.60
2022-10-19T20:47:39.061Z,1.60
2022-10-19T20:50:26.590Z,1.70
2022-10-19T20:53:14.724Z,1.60
2022-10-19T20:56:05.449Z,1.45
2022-10-19T20:58:56.288Z,1.80
2022-10-19T21:01:45.888Z,1.67
2022-10-19T21:04:36.304Z,1.73
2022-10-19T21:07:23.605Z,2.00
2022-10-19T21:10:11.203Z,1.70
2022-10-19T21:12:58.354Z,1.93
2022-10-19T21:15:46.255Z,2.70
2022-10-19T21:18:34.389Z,2.72
2022-10-19T21:21:24.749Z,2.33
2022-10-19T21:24:14.430Z,2.28
2022-10-19T21:27:03.856Z,2.10
2022-10-19T21:29:51.584Z,1.73
2022-10-19T21:32:40.329Z,2.55
2022-10-19T21:35:27.727Z,2.72
2022-10-19T21:38:16.440Z,2.50
2022-10-19T21:41:06.563Z,2.10
2022-10-19T21:43:53.942Z,1.30
2022-10-19T21:46:43.103Z,1.85
2022-10-19T21:49:30.576Z,1.80
2022-10-19T21:52:17.896Z,1.75
2022-10-19T21:55:07.607Z,2.10
2022-10-19T21:57:55.044Z,1.45
2022-10-19T22:00:42.504Z,1.50
2022-10-19T22:03:29.721Z,1.58
2022-10-19T22:06:17.246Z,1.48
2022-10-19T22:09:05.792Z,1.20
2022-10-19T22:11:54.903Z,1.30
2022-10-19T22:14:44.872Z,1.30
2022-10-19T22:17:32.793Z,1.40
2022-10-19T22:20:20.447Z,1.42
2022-10-19T22:23:09.262Z,1.30
2022-10-19T22:25:56.322Z,1.65
2022-10-19T22:28:46.018Z,1.70
2022-10-19T22:31:35.016Z,2.60
2022-10-19T22:34:22.656Z,2.30
2022-10-19T22:37:10.442Z,2.13
2022-10-19T22:39:58.165Z,1.52
2022-10-19T22:42:45.512Z,2.00
2022-10-19T22:45:34.308Z,2.05
2022-10-19T22:48:22.003Z,1.80
2022-10-19T22:51:09.658Z,1.73
2022-10-19T22:53:57.037Z,1.90
2022-10-19T22:56:44.616Z,2.17
2022-10-19T22:59:32.293Z,2.00
2022-10-19T23:02:20.579Z,1.85
2022-10-19T23:05:08.621Z,1.87
2022-10-19T23:07:56.129Z,2.05
2022-10-19T23:10:43.141Z,2.13
2022-10-19T23:13:30.819Z,1.90
2022-10-19T23:16:18.594Z,2.28
2022-10-19T23:19:07.789Z,2.30
2022-10-19T23:21:55.179Z,2.13
2022-10-19T23:24:42.205Z,3.05
2022-10-19T23:27:29.915Z,3.42
2022-10-19T23:30:17.355Z,3.53
2022-10-19T23:33:05.208Z,3.40
2022-10-19T23:35:54.190Z,2.58
2022-10-19T23:38:42.694Z,2.40
2022-10-19T23:41:30.265Z,2.53
2022-10-19T23:44:17.767Z,2.58
2022-10-19T23:47:05.328Z,2.60
2022-10-19T23:49:52.873Z,2.63
2022-10-19T23:52:42.127Z,3.08
2022-10-19T23:55:29.517Z,3.53
2022-10-19T23:58:16.956Z,3.60
